• Join FlightAware (Why Join?)
  • Login
  • US Flag 
01:26AM EDT


 

Airport Tracker/Info


-or-


 

Live Flight TrackerFlight Track Log ✈ N161DC ✈ 09-Aug-2014 ✈ KERI - KBKL

Flight Track Log - Related Links

Times and Time Zones

All times are in EDT time to prevent confusion due to time zone crossing. See the N161DC flight status page for this flight to view local times or setup timezone preferences in your user account.

Time Position Orientation Groundspeed Altitude Reporting Facility
EDT Latitude Longitude Course Direction KTS MPH feet Rate Location/Type
04:05PM 42.0314 -80.3067 239° Southwest 101 116 4,400  Level Cleveland Center
04:06PM 42.0178 -80.3428 243° Southwest 102 117 4,400  Level Cleveland Center
04:07PM 42.0039 -80.3783 242° Southwest 103 119 4,500  Climbing Cleveland Center
04:08PM 41.9891 -80.4058 243° Southwest  Level FlightAware Approximate
04:08PM 41.9908 -80.4139 244° Southwest 104 120 4,500  Level Cleveland Center
04:09PM 41.9742 -80.4449 243° Southwest  Level FlightAware Approximate
04:09PM 41.9767 -80.4567 246° West 104 120 4,500  Level Cleveland Center
04:10PM 41.9644 -80.4944 246° West 104 120 4,400  Descending Cleveland Center
04:11PM 41.9508 -80.5300 243° Southwest 105 121 4,500  Climbing Cleveland Center
04:12PM 41.9367 -80.5647 241° Southwest 105 121 4,500 -60 Level Cleveland Center
04:13PM 41.9258 -80.6025 249° West 105 121 4,400 -60 Descending Cleveland Center
04:14PM 41.9142 -80.6397 247° West 105 121 4,400  Level Cleveland Center
04:15PM 41.9039 -80.6769 250° West 105 121 4,500  Climbing Cleveland Center
04:16PM 41.8939 -80.7206 253° West 105 121 4,500 -60 Level Cleveland Center
04:17PM 41.8847 -80.7597 253° West 105 121 4,400 -60 Descending Cleveland Center
04:18PM 41.8783 -80.8000 258° West 105 121 4,400  Level Cleveland Center
04:19PM 41.8689 -80.8378 251° West 105 121 4,400  Level Cleveland Center
04:20PM 41.8558 -80.8739 244° Southwest 105 121 4,400  Level Cleveland Center
04:21PM 41.8436 -80.9058 243° Southwest 101 116 4,500 60 Climbing Cleveland Center
04:21PM 41.8431 -80.9142 265° West 101 116 4,500  Level Cleveland Center
04:22PM 41.8364 -80.9422 252° West 100 115 4,500  Level Cleveland Center
04:23PM 41.8256 -80.9864 252° West 101 116 4,500  Level Cleveland Center
04:24PM 41.8183 -81.0189 253° West 102 117 4,500  Level Cleveland Center
04:26PM 41.7993 -81.0568 236° Southwest  Level FlightAware Approximate
04:33PM 41.6796 -81.2940 236° Southwest  Level FlightAware Approximate
04:34PM 41.6624 -81.3278 236° Southwest  Level FlightAware Approximate
04:35PM 41.6453 -81.3616 236° Southwest  Level FlightAware Approximate
04:36PM 41.6281 -81.3954 236° Southwest  Level FlightAware Approximate
04:37PM 41.6109 -81.4292 236° Southwest  Level FlightAware Approximate
04:38PM 41.5938 -81.4629 236° Southwest  Level FlightAware Approximate
04:39PM 41.5737 -81.4930 217° Southwest  Level FlightAware Approximate
04:40PM 41.5578 -81.5265 246° West  Level FlightAware Approximate
04:41PM 41.5454 -81.5638 246° West  Level FlightAware Approximate
04:42PM 41.5331 -81.6011 252° West  Level FlightAware Approximate
04:43PM 41.5234 -81.6398 252° West  Level FlightAware Approximate
04:44PM 41.5167 -81.6667 252° West  Level FlightAware Approximate
04:45PM 41.5179 -81.6826 143° Southeast  Level Estimated
04:46PM 41.5179 -81.6826 252° West  Level Estimated
04:47PM 41.5179 -81.6826 96° East  Level Estimated
04:48PM 41.5179 -81.6826 252° West  Level Estimated
04:49PM 41.5179 -81.6826 96° East  Level Estimated
04:50PM 41.5179 -81.6826 252° West  Level Estimated
04:51PM 41.5179 -81.6826 96° East  Level Estimated
04:52PM 41.5179 -81.6826 252° West  Level Estimated
04:53PM 41.5179 -81.6826 96° East  Level Estimated
04:54PM 41.5179 -81.6826 252° West  Level Estimated
04:55PM 41.5179 -81.6826 96° East  Level Estimated
04:56PM 41.5179 -81.6826 252° West  Level Estimated
04:57PM 41.5179 -81.6826 96° East  Level Estimated
04:58PM 41.5179 -81.6826 252° West  Level Estimated
04:59PM 41.5179 -81.6826 96° East  Level Estimated
05:00PM 41.5179 -81.6826 252° West  Level Estimated
05:01PM 41.5179 -81.6826 96° East  Level Estimated